sensor_id;sensor_type;location;lat;lon;timestamp;P1;durP1;ratioP1;P2;durP2;ratioP2
41233;SDS011;26968;42.686;23.352;2023-03-23T00:01:55;69.38;;;37.03;;
41233;SDS011;26968;42.686;23.352;2023-03-23T00:04:21;74.35;;;38.50;;
41233;SDS011;26968;42.686;23.352;2023-03-23T00:06:47;77.57;;;39.15;;
41233;SDS011;26968;42.686;23.352;2023-03-23T00:09:14;69.65;;;38.58;;
41233;SDS011;26968;42.686;23.352;2023-03-23T00:11:40;73.45;;;37.67;;
41233;SDS011;26968;42.686;23.352;2023-03-23T00:14:07;71.18;;;37.92;;
41233;SDS011;26968;42.686;23.352;2023-03-23T00:16:37;79.43;;;41.03;;
41233;SDS011;26968;42.686;23.352;2023-03-23T00:19:07;68.57;;;37.97;;
41233;SDS011;26968;42.686;23.352;2023-03-23T00:21:35;84.00;;;39.95;;
41233;SDS011;26968;42.686;23.352;2023-03-23T00:24:03;70.35;;;38.58;;
41233;SDS011;26968;42.686;23.352;2023-03-23T00:26:43;74.18;;;38.65;;
41233;SDS011;26968;42.686;23.352;2023-03-23T00:29:13;78.75;;;38.35;;
41233;SDS011;26968;42.686;23.352;2023-03-23T00:31:41;74.38;;;38.35;;
41233;SDS011;26968;42.686;23.352;2023-03-23T00:34:12;72.05;;;38.63;;
41233;SDS011;26968;42.686;23.352;2023-03-23T00:36:49;77.32;;;39.92;;
41233;SDS011;26968;42.686;23.352;2023-03-23T00:39:16;81.22;;;41.90;;
41233;SDS011;26968;42.686;23.352;2023-03-23T00:41:42;91.35;;;45.17;;
41233;SDS011;26968;42.686;23.352;2023-03-23T00:44:09;100.63;;;48.28;;
41233;SDS011;26968;42.686;23.352;2023-03-23T00:46:34;104.85;;;54.08;;
41233;SDS011;26968;42.686;23.352;2023-03-23T00:49:09;114.72;;;57.47;;
41233;SDS011;26968;42.686;23.352;2023-03-23T00:51:37;108.35;;;54.63;;
41233;SDS011;26968;42.686;23.352;2023-03-23T00:54:02;110.82;;;57.05;;
41233;SDS011;26968;42.686;23.352;2023-03-23T00:56:28;145.02;;;55.78;;
41233;SDS011;26968;42.686;23.352;2023-03-23T00:58:53;140.20;;;54.58;;
41233;SDS011;26968;42.686;23.352;2023-03-23T01:01:19;146.82;;;57.97;;
41233;SDS011;26968;42.686;23.352;2023-03-23T01:03:44;135.52;;;55.70;;
41233;SDS011;26968;42.686;23.352;2023-03-23T01:06:10;131.90;;;58.72;;
41233;SDS011;26968;42.686;23.352;2023-03-23T01:08:39;139.27;;;56.42;;
41233;SDS011;26968;42.686;23.352;2023-03-23T01:11:13;135.50;;;54.22;;
41233;SDS011;26968;42.686;23.352;2023-03-23T01:13:40;149.23;;;51.63;;
41233;SDS011;26968;42.686;23.352;2023-03-23T01:16:09;120.28;;;48.28;;
41233;SDS011;26968;42.686;23.352;2023-03-23T01:18:35;114.28;;;47.42;;
41233;SDS011;26968;42.686;23.352;2023-03-23T01:21:09;114.70;;;43.75;;
41233;SDS011;26968;42.686;23.352;2023-03-23T01:23:36;164.18;;;45.55;;
41233;SDS011;26968;42.686;23.352;2023-03-23T01:26:06;174.73;;;45.70;;
41233;SDS011;26968;42.686;23.352;2023-03-23T01:28:33;295.95;;;47.50;;
41233;SDS011;26968;42.686;23.352;2023-03-23T01:31:01;217.13;;;44.22;;
41233;SDS011;26968;42.686;23.352;2023-03-23T01:33:31;188.82;;;46.72;;
41233;SDS011;26968;42.686;23.352;2023-03-23T01:35:56;118.15;;;41.83;;
41233;SDS011;26968;42.686;23.352;2023-03-23T01:38:22;119.78;;;43.70;;
41233;SDS011;26968;42.686;23.352;2023-03-23T01:40:48;78.32;;;40.67;;
41233;SDS011;26968;42.686;23.352;2023-03-23T01:43:14;80.40;;;41.13;;
41233;SDS011;26968;42.686;23.352;2023-03-23T01:45:40;81.93;;;40.83;;
41233;SDS011;26968;42.686;23.352;2023-03-23T01:50:44;76.95;;;40.97;;
41233;SDS011;26968;42.686;23.352;2023-03-23T01:53:16;77.80;;;40.47;;
41233;SDS011;26968;42.686;23.352;2023-03-23T01:55:43;74.30;;;39.80;;
41233;SDS011;26968;42.686;23.352;2023-03-23T01:58:13;80.47;;;41.00;;
41233;SDS011;26968;42.686;23.352;2023-03-23T02:00:40;75.65;;;39.88;;
41233;SDS011;26968;42.686;23.352;2023-03-23T02:03:07;80.15;;;41.00;;
41233;SDS011;26968;42.686;23.352;2023-03-23T02:05:39;76.40;;;40.60;;
41233;SDS011;26968;42.686;23.352;2023-03-23T02:08:06;75.47;;;39.65;;
41233;SDS011;26968;42.686;23.352;2023-03-23T02:10:33;78.78;;;40.58;;
41233;SDS011;26968;42.686;23.352;2023-03-23T02:13:00;71.47;;;40.47;;
41233;SDS011;26968;42.686;23.352;2023-03-23T02:15:41;68.68;;;37.25;;
41233;SDS011;26968;42.686;23.352;2023-03-23T02:23:46;80.97;;;41.88;;
41233;SDS011;26968;42.686;23.352;2023-03-23T02:29:48;76.88;;;39.70;;
41233;SDS011;26968;42.686;23.352;2023-03-23T02:34:56;81.60;;;39.08;;
41233;SDS011;26968;42.686;23.352;2023-03-23T02:37:39;83.57;;;38.70;;
41233;SDS011;26968;42.686;23.352;2023-03-23T02:40:46;77.07;;;37.67;;
41233;SDS011;26968;42.686;23.352;2023-03-23T02:43:09;76.80;;;37.88;;
41233;SDS011;26968;42.686;23.352;2023-03-23T02:45:40;72.97;;;40.03;;
41233;SDS011;26968;42.686;23.352;2023-03-23T02:48:07;75.82;;;38.80;;
41233;SDS011;26968;42.686;23.352;2023-03-23T02:50:36;69.30;;;36.85;;
41233;SDS011;26968;42.686;23.352;2023-03-23T02:53:03;57.38;;;31.45;;
41233;SDS011;26968;42.686;23.352;2023-03-23T02:55:32;51.20;;;30.23;;
41233;SDS011;26968;42.686;23.352;2023-03-23T02:58:00;59.13;;;31.17;;
41233;SDS011;26968;42.686;23.352;2023-03-23T03:00:27;55.00;;;28.85;;
41233;SDS011;26968;42.686;23.352;2023-03-23T03:02:53;53.17;;;29.90;;
41233;SDS011;26968;42.686;23.352;2023-03-23T03:13:29;51.03;;;25.58;;
41233;SDS011;26968;42.686;23.352;2023-03-23T03:19:06;39.78;;;22.73;;
41233;SDS011;26968;42.686;23.352;2023-03-23T03:21:50;35.95;;;20.15;;
41233;SDS011;26968;42.686;23.352;2023-03-23T03:24:18;35.85;;;21.35;;
41233;SDS011;26968;42.686;23.352;2023-03-23T03:26:46;35.65;;;19.77;;
41233;SDS011;26968;42.686;23.352;2023-03-23T03:29:30;36.60;;;20.38;;
41233;SDS011;26968;42.686;23.352;2023-03-23T03:31:59;38.53;;;21.13;;
41233;SDS011;26968;42.686;23.352;2023-03-23T03:34:29;50.80;;;22.37;;
41233;SDS011;26968;42.686;23.352;2023-03-23T03:36:57;37.72;;;21.55;;
41233;SDS011;26968;42.686;23.352;2023-03-23T03:39:24;42.33;;;24.83;;
41233;SDS011;26968;42.686;23.352;2023-03-23T03:41:51;61.70;;;29.83;;
41233;SDS011;26968;42.686;23.352;2023-03-23T03:44:16;51.20;;;28.48;;
41233;SDS011;26968;42.686;23.352;2023-03-23T03:46:42;49.67;;;24.25;;
41233;SDS011;26968;42.686;23.352;2023-03-23T03:49:08;47.15;;;23.55;;
41233;SDS011;26968;42.686;23.352;2023-03-23T03:51:38;40.60;;;21.45;;
41233;SDS011;26968;42.686;23.352;2023-03-23T03:54:05;43.03;;;21.85;;
41233;SDS011;26968;42.686;23.352;2023-03-23T03:56:31;30.50;;;18.48;;
41233;SDS011;26968;42.686;23.352;2023-03-23T03:59:00;31.40;;;18.50;;
41233;SDS011;26968;42.686;23.352;2023-03-23T04:01:27;29.45;;;17.30;;
41233;SDS011;26968;42.686;23.352;2023-03-23T04:03:53;33.65;;;18.13;;
41233;SDS011;26968;42.686;23.352;2023-03-23T04:06:19;28.70;;;17.13;;
41233;SDS011;26968;42.686;23.352;2023-03-23T04:08:45;40.55;;;18.77;;
41233;SDS011;26968;42.686;23.352;2023-03-23T04:11:12;35.55;;;20.63;;
41233;SDS011;26968;42.686;23.352;2023-03-23T04:13:38;41.60;;;20.83;;
41233;SDS011;26968;42.686;23.352;2023-03-23T04:16:05;48.97;;;21.80;;
41233;SDS011;26968;42.686;23.352;2023-03-23T04:18:31;37.78;;;19.63;;
41233;SDS011;26968;42.686;23.352;2023-03-23T04:20:59;37.28;;;20.92;;
41233;SDS011;26968;42.686;23.352;2023-03-23T04:23:25;35.13;;;18.67;;
41233;SDS011;26968;42.686;23.352;2023-03-23T04:25:55;38.25;;;18.33;;
41233;SDS011;26968;42.686;23.352;2023-03-23T04:28:22;33.58;;;18.80;;
41233;SDS011;26968;42.686;23.352;2023-03-23T04:30:52;32.65;;;18.35;;
41233;SDS011;26968;42.686;23.352;2023-03-23T04:33:19;31.63;;;19.05;;
41233;SDS011;26968;42.686;23.352;2023-03-23T04:35:46;36.53;;;17.42;;
41233;SDS011;26968;42.686;23.352;2023-03-23T04:38:14;31.40;;;18.42;;
41233;SDS011;26968;42.686;23.352;2023-03-23T04:40:41;35.13;;;19.17;;
41233;SDS011;26968;42.686;23.352;2023-03-23T04:43:08;37.42;;;18.33;;
41233;SDS011;26968;42.686;23.352;2023-03-23T04:45:34;35.58;;;18.92;;
41233;SDS011;26968;42.686;23.352;2023-03-23T04:48:02;46.63;;;21.70;;
41233;SDS011;26968;42.686;23.352;2023-03-23T04:50:30;38.45;;;20.17;;
41233;SDS011;26968;42.686;23.352;2023-03-23T04:53:01;35.33;;;19.02;;
41233;SDS011;26968;42.686;23.352;2023-03-23T04:55:31;46.47;;;21.00;;
41233;SDS011;26968;42.686;23.352;2023-03-23T04:58:02;35.28;;;19.25;;
41233;SDS011;26968;42.686;23.352;2023-03-23T05:00:28;39.33;;;19.50;;
41233;SDS011;26968;42.686;23.352;2023-03-23T05:02:54;41.50;;;19.85;;
41233;SDS011;26968;42.686;23.352;2023-03-23T05:05:20;35.80;;;19.75;;
41233;SDS011;26968;42.686;23.352;2023-03-23T05:07:48;48.53;;;20.77;;
41233;SDS011;26968;42.686;23.352;2023-03-23T05:10:14;33.80;;;20.42;;
41233;SDS011;26968;42.686;23.352;2023-03-23T05:12:41;40.10;;;20.80;;
41233;SDS011;26968;42.686;23.352;2023-03-23T05:15:07;44.72;;;21.63;;
41233;SDS011;26968;42.686;23.352;2023-03-23T05:17:33;44.15;;;21.30;;
41233;SDS011;26968;42.686;23.352;2023-03-23T05:19:59;40.92;;;20.60;;
41233;SDS011;26968;42.686;23.352;2023-03-23T05:22:27;43.78;;;22.90;;
41233;SDS011;26968;42.686;23.352;2023-03-23T05:24:53;44.03;;;19.08;;
41233;SDS011;26968;42.686;23.352;2023-03-23T05:27:19;37.38;;;21.48;;
41233;SDS011;26968;42.686;23.352;2023-03-23T05:29:45;51.78;;;21.88;;
41233;SDS011;26968;42.686;23.352;2023-03-23T05:32:13;37.92;;;21.67;;
41233;SDS011;26968;42.686;23.352;2023-03-23T05:34:44;37.07;;;22.97;;
41233;SDS011;26968;42.686;23.352;2023-03-23T05:37:09;41.08;;;22.30;;
41233;SDS011;26968;42.686;23.352;2023-03-23T05:39:35;46.35;;;23.60;;
41233;SDS011;26968;42.686;23.352;2023-03-23T05:42:01;51.95;;;23.92;;
41233;SDS011;26968;42.686;23.352;2023-03-23T05:44:29;40.65;;;23.65;;
41233;SDS011;26968;42.686;23.352;2023-03-23T05:46:55;42.50;;;21.38;;
41233;SDS011;26968;42.686;23.352;2023-03-23T05:49:20;42.08;;;22.58;;
41233;SDS011;26968;42.686;23.352;2023-03-23T05:51:47;42.25;;;22.00;;
41233;SDS011;26968;42.686;23.352;2023-03-23T05:54:13;47.08;;;22.33;;
41233;SDS011;26968;42.686;23.352;2023-03-23T05:56:39;41.70;;;22.08;;
41233;SDS011;26968;42.686;23.352;2023-03-23T05:59:05;41.65;;;22.98;;
41233;SDS011;26968;42.686;23.352;2023-03-23T06:01:31;38.65;;;22.92;;
41233;SDS011;26968;42.686;23.352;2023-03-23T06:03:58;43.75;;;23.92;;
41233;SDS011;26968;42.686;23.352;2023-03-23T06:06:24;41.03;;;24.10;;
41233;SDS011;26968;42.686;23.352;2023-03-23T06:08:54;42.47;;;23.70;;
41233;SDS011;26968;42.686;23.352;2023-03-23T06:11:21;51.92;;;25.58;;
41233;SDS011;26968;42.686;23.352;2023-03-23T06:13:48;46.78;;;25.65;;
41233;SDS011;26968;42.686;23.352;2023-03-23T06:16:14;69.00;;;32.97;;
41233;SDS011;26968;42.686;23.352;2023-03-23T06:18:39;58.70;;;29.58;;
41233;SDS011;26968;42.686;23.352;2023-03-23T06:21:07;56.17;;;31.33;;
41233;SDS011;26968;42.686;23.352;2023-03-23T06:23:33;57.00;;;32.38;;
41233;SDS011;26968;42.686;23.352;2023-03-23T06:26:00;60.83;;;32.53;;
41233;SDS011;26968;42.686;23.352;2023-03-23T06:28:30;59.40;;;33.80;;
41233;SDS011;26968;42.686;23.352;2023-03-23T06:30:58;62.30;;;31.92;;
41233;SDS011;26968;42.686;23.352;2023-03-23T06:33:29;56.88;;;31.15;;
41233;SDS011;26968;42.686;23.352;2023-03-23T06:35:55;58.33;;;31.55;;
41233;SDS011;26968;42.686;23.352;2023-03-23T06:38:21;69.85;;;34.42;;
41233;SDS011;26968;42.686;23.352;2023-03-23T06:40:46;72.47;;;34.40;;
41233;SDS011;26968;42.686;23.352;2023-03-23T06:43:13;58.67;;;31.42;;
41233;SDS011;26968;42.686;23.352;2023-03-23T06:45:39;60.60;;;32.08;;
41233;SDS011;26968;42.686;23.352;2023-03-23T06:48:04;65.43;;;30.70;;
41233;SDS011;26968;42.686;23.352;2023-03-23T06:50:30;53.33;;;31.00;;
41233;SDS011;26968;42.686;23.352;2023-03-23T06:52:56;57.83;;;31.65;;
41233;SDS011;26968;42.686;23.352;2023-03-23T06:55:22;59.33;;;33.28;;
41233;SDS011;26968;42.686;23.352;2023-03-23T06:57:47;61.05;;;30.67;;
41233;SDS011;26968;42.686;23.352;2023-03-23T07:00:13;57.25;;;31.58;;
41233;SDS011;26968;42.686;23.352;2023-03-23T07:02:39;68.50;;;33.38;;
41233;SDS011;26968;42.686;23.352;2023-03-23T07:05:06;61.58;;;31.98;;
41233;SDS011;26968;42.686;23.352;2023-03-23T07:07:34;58.70;;;32.25;;
41233;SDS011;26968;42.686;23.352;2023-03-23T07:09:59;61.97;;;32.03;;
41233;SDS011;26968;42.686;23.352;2023-03-23T07:12:25;60.65;;;33.20;;
41233;SDS011;26968;42.686;23.352;2023-03-23T07:14:52;60.53;;;32.40;;
41233;SDS011;26968;42.686;23.352;2023-03-23T07:17:17;63.85;;;33.55;;
41233;SDS011;26968;42.686;23.352;2023-03-23T07:19:43;52.83;;;31.52;;
41233;SDS011;26968;42.686;23.352;2023-03-23T07:22:08;58.90;;;32.10;;
41233;SDS011;26968;42.686;23.352;2023-03-23T07:24:34;60.22;;;32.17;;
41233;SDS011;26968;42.686;23.352;2023-03-23T07:27:00;55.67;;;31.92;;
41233;SDS011;26968;42.686;23.352;2023-03-23T07:29:26;58.67;;;33.47;;
41233;SDS011;26968;42.686;23.352;2023-03-23T07:31:52;66.18;;;33.28;;
41233;SDS011;26968;42.686;23.352;2023-03-23T07:34:18;63.30;;;34.35;;
41233;SDS011;26968;42.686;23.352;2023-03-23T07:36:44;56.90;;;32.35;;
41233;SDS011;26968;42.686;23.352;2023-03-23T07:39:11;66.75;;;33.90;;
41233;SDS011;26968;42.686;23.352;2023-03-23T07:41:40;65.32;;;34.78;;
41233;SDS011;26968;42.686;23.352;2023-03-23T07:44:05;68.65;;;33.55;;
41233;SDS011;26968;42.686;23.352;2023-03-23T07:46:31;78.10;;;36.08;;
41233;SDS011;26968;42.686;23.352;2023-03-23T07:48:58;68.78;;;34.15;;
41233;SDS011;26968;42.686;23.352;2023-03-23T07:51:24;65.30;;;34.47;;
41233;SDS011;26968;42.686;23.352;2023-03-23T07:53:49;81.18;;;37.30;;
41233;SDS011;26968;42.686;23.352;2023-03-23T07:56:17;71.95;;;35.67;;
41233;SDS011;26968;42.686;23.352;2023-03-23T07:58:47;71.82;;;35.70;;
41233;SDS011;26968;42.686;23.352;2023-03-23T08:01:14;59.50;;;33.10;;
41233;SDS011;26968;42.686;23.352;2023-03-23T08:03:40;69.97;;;35.42;;
41233;SDS011;26968;42.686;23.352;2023-03-23T08:06:07;63.88;;;33.50;;
41233;SDS011;26968;42.686;23.352;2023-03-23T08:08:33;67.13;;;34.42;;
41233;SDS011;26968;42.686;23.352;2023-03-23T08:10:59;66.03;;;32.55;;
41233;SDS011;26968;42.686;23.352;2023-03-23T08:13:26;66.22;;;33.28;;
41233;SDS011;26968;42.686;23.352;2023-03-23T08:15:52;63.53;;;34.08;;
41233;SDS011;26968;42.686;23.352;2023-03-23T08:18:18;66.40;;;34.35;;
41233;SDS011;26968;42.686;23.352;2023-03-23T08:20:45;69.32;;;34.17;;
41233;SDS011;26968;42.686;23.352;2023-03-23T08:23:11;55.92;;;30.58;;
41233;SDS011;26968;42.686;23.352;2023-03-23T08:25:37;52.20;;;28.88;;
41233;SDS011;26968;42.686;23.352;2023-03-23T08:28:02;51.15;;;29.92;;
41233;SDS011;26968;42.686;23.352;2023-03-23T08:30:29;50.75;;;29.85;;
41233;SDS011;26968;42.686;23.352;2023-03-23T08:32:57;52.03;;;29.70;;
41233;SDS011;26968;42.686;23.352;2023-03-23T08:35:23;54.22;;;30.75;;
41233;SDS011;26968;42.686;23.352;2023-03-23T08:37:49;55.90;;;30.83;;
41233;SDS011;26968;42.686;23.352;2023-03-23T08:40:20;51.92;;;27.08;;
41233;SDS011;26968;42.686;23.352;2023-03-23T08:42:47;47.95;;;28.52;;
41233;SDS011;26968;42.686;23.352;2023-03-23T08:45:15;43.03;;;25.85;;
41233;SDS011;26968;42.686;23.352;2023-03-23T08:47:43;48.50;;;25.23;;
41233;SDS011;26968;42.686;23.352;2023-03-23T08:50:14;36.35;;;22.42;;
41233;SDS011;26968;42.686;23.352;2023-03-23T08:52:41;34.17;;;17.13;;
41233;SDS011;26968;42.686;23.352;2023-03-23T08:55:07;33.88;;;18.27;;
41233;SDS011;26968;42.686;23.352;2023-03-23T08:57:33;35.95;;;18.50;;
41233;SDS011;26968;42.686;23.352;2023-03-23T09:00:00;40.03;;;18.55;;
41233;SDS011;26968;42.686;23.352;2023-03-23T09:02:38;23.80;;;12.32;;
41233;SDS011;26968;42.686;23.352;2023-03-23T09:05:03;22.73;;;13.23;;
41233;SDS011;26968;42.686;23.352;2023-03-23T09:07:29;22.85;;;13.55;;
41233;SDS011;26968;42.686;23.352;2023-03-23T09:09:55;18.98;;;12.60;;
41233;SDS011;26968;42.686;23.352;2023-03-23T09:12:20;15.82;;;9.93;;
41233;SDS011;26968;42.686;23.352;2023-03-23T09:14:46;20.10;;;11.07;;
41233;SDS011;26968;42.686;23.352;2023-03-23T09:17:12;20.95;;;13.15;;
41233;SDS011;26968;42.686;23.352;2023-03-23T09:19:37;26.67;;;13.52;;
41233;SDS011;26968;42.686;23.352;2023-03-23T09:22:03;25.55;;;14.00;;
41233;SDS011;26968;42.686;23.352;2023-03-23T09:24:29;31.77;;;13.75;;
41233;SDS011;26968;42.686;23.352;2023-03-23T09:26:54;28.40;;;12.05;;
41233;SDS011;26968;42.686;23.352;2023-03-23T09:29:23;23.67;;;11.93;;
41233;SDS011;26968;42.686;23.352;2023-03-23T09:31:49;28.35;;;14.77;;
41233;SDS011;26968;42.686;23.352;2023-03-23T09:34:14;23.60;;;13.52;;
41233;SDS011;26968;42.686;23.352;2023-03-23T09:36:40;24.25;;;14.30;;
41233;SDS011;26968;42.686;23.352;2023-03-23T09:39:06;24.83;;;14.52;;
41233;SDS011;26968;42.686;23.352;2023-03-23T09:50:44;17.48;;;10.15;;
41233;SDS011;26968;42.686;23.352;2023-03-23T09:55:46;15.15;;;8.30;;
41233;SDS011;26968;42.686;23.352;2023-03-23T09:58:50;12.05;;;8.23;;
41233;SDS011;26968;42.686;23.352;2023-03-23T10:01:26;17.13;;;9.73;;
41233;SDS011;26968;42.686;23.352;2023-03-23T10:04:24;15.75;;;8.57;;
41233;SDS011;26968;42.686;23.352;2023-03-23T10:06:57;22.67;;;11.07;;
41233;SDS011;26968;42.686;23.352;2023-03-23T10:09:45;13.82;;;10.02;;
41233;SDS011;26968;42.686;23.352;2023-03-23T10:12:34;16.20;;;9.65;;
41233;SDS011;26968;42.686;23.352;2023-03-23T10:15:14;14.80;;;9.30;;
41233;SDS011;26968;42.686;23.352;2023-03-23T10:17:45;13.95;;;9.68;;
41233;SDS011;26968;42.686;23.352;2023-03-23T10:20:30;15.73;;;10.57;;
41233;SDS011;26968;42.686;23.352;2023-03-23T10:26:48;14.27;;;9.27;;
41233;SDS011;26968;42.686;23.352;2023-03-23T10:28:48;14.23;;;9.05;;
41233;SDS011;26968;42.686;23.352;2023-03-23T10:31:22;14.98;;;9.30;;
41233;SDS011;26968;42.686;23.352;2023-03-23T10:33:50;13.38;;;9.10;;
41233;SDS011;26968;42.686;23.352;2023-03-23T10:36:48;11.48;;;8.35;;
41233;SDS011;26968;42.686;23.352;2023-03-23T10:39:19;10.25;;;8.02;;
41233;SDS011;26968;42.686;23.352;2023-03-23T10:41:47;13.88;;;9.23;;
41233;SDS011;26968;42.686;23.352;2023-03-23T10:44:16;13.27;;;8.55;;
41233;SDS011;26968;42.686;23.352;2023-03-23T10:46:45;11.88;;;8.57;;
41233;SDS011;26968;42.686;23.352;2023-03-23T10:49:23;14.82;;;9.25;;
41233;SDS011;26968;42.686;23.352;2023-03-23T10:54:55;13.05;;;8.48;;
41233;SDS011;26968;42.686;23.352;2023-03-23T10:57:25;12.57;;;8.13;;
41233;SDS011;26968;42.686;23.352;2023-03-23T11:00:03;12.13;;;8.55;;
41233;SDS011;26968;42.686;23.352;2023-03-23T11:02:47;15.07;;;8.82;;
41233;SDS011;26968;42.686;23.352;2023-03-23T11:05:41;14.07;;;7.72;;
41233;SDS011;26968;42.686;23.352;2023-03-23T11:08:13;12.75;;;7.32;;
41233;SDS011;26968;42.686;23.352;2023-03-23T11:10:49;11.20;;;7.70;;
41233;SDS011;26968;42.686;23.352;2023-03-23T11:13:17;16.20;;;9.43;;
41233;SDS011;26968;42.686;23.352;2023-03-23T11:15:45;17.25;;;8.98;;
41233;SDS011;26968;42.686;23.352;2023-03-23T11:18:13;10.60;;;8.15;;
41233;SDS011;26968;42.686;23.352;2023-03-23T11:20:47;17.45;;;8.57;;
41233;SDS011;26968;42.686;23.352;2023-03-23T11:23:31;20.20;;;9.77;;
41233;SDS011;26968;42.686;23.352;2023-03-23T11:28:56;12.05;;;7.47;;
41233;SDS011;26968;42.686;23.352;2023-03-23T11:31:34;8.80;;;7.05;;
41233;SDS011;26968;42.686;23.352;2023-03-23T11:36:41;10.95;;;7.68;;
41233;SDS011;26968;42.686;23.352;2023-03-23T11:41:43;13.35;;;7.95;;
41233;SDS011;26968;42.686;23.352;2023-03-23T11:44:10;13.05;;;7.40;;
41233;SDS011;26968;42.686;23.352;2023-03-23T11:51:44;11.02;;;7.03;;
41233;SDS011;26968;42.686;23.352;2023-03-23T11:54:28;10.27;;;6.55;;
41233;SDS011;26968;42.686;23.352;2023-03-23T11:56:57;9.05;;;7.65;;
41233;SDS011;26968;42.686;23.352;2023-03-23T11:59:27;9.98;;;7.05;;
41233;SDS011;26968;42.686;23.352;2023-03-23T12:01:56;14.77;;;7.43;;
41233;SDS011;26968;42.686;23.352;2023-03-23T12:10:33;10.50;;;7.15;;
41233;SDS011;26968;42.686;23.352;2023-03-23T12:18:51;11.52;;;7.57;;
41233;SDS011;26968;42.686;23.352;2023-03-23T12:24:16;9.00;;;6.50;;
41233;SDS011;26968;42.686;23.352;2023-03-23T12:29:26;18.42;;;7.60;;
41233;SDS011;26968;42.686;23.352;2023-03-23T12:35:14;9.18;;;7.00;;
41233;SDS011;26968;42.686;23.352;2023-03-23T12:43:59;11.98;;;7.13;;
41233;SDS011;26968;42.686;23.352;2023-03-23T12:51:50;8.27;;;6.20;;
41233;SDS011;26968;42.686;23.352;2023-03-23T12:54:26;9.15;;;6.28;;
41233;SDS011;26968;42.686;23.352;2023-03-23T12:56:59;10.90;;;5.97;;
41233;SDS011;26968;42.686;23.352;2023-03-23T12:59:32;10.32;;;7.00;;
41233;SDS011;26968;42.686;23.352;2023-03-23T13:04:42;9.10;;;6.85;;
41233;SDS011;26968;42.686;23.352;2023-03-23T13:07:15;14.82;;;7.47;;
41233;SDS011;26968;42.686;23.352;2023-03-23T13:09:54;11.20;;;6.72;;
41233;SDS011;26968;42.686;23.352;2023-03-23T13:12:27;11.05;;;5.75;;
41233;SDS011;26968;42.686;23.352;2023-03-23T13:29:35;10.05;;;5.95;;
41233;SDS011;26968;42.686;23.352;2023-03-23T13:31:43;10.80;;;5.72;;
41233;SDS011;26968;42.686;23.352;2023-03-23T13:39:23;8.60;;;6.05;;
41233;SDS011;26968;42.686;23.352;2023-03-23T13:47:47;10.23;;;6.22;;
41233;SDS011;26968;42.686;23.352;2023-03-23T13:50:25;8.57;;;5.57;;
41233;SDS011;26968;42.686;23.352;2023-03-23T13:52:57;7.80;;;5.50;;
41233;SDS011;26968;42.686;23.352;2023-03-23T13:58:21;7.97;;;5.75;;
41233;SDS011;26968;42.686;23.352;2023-03-23T14:00:50;8.45;;;5.55;;
41233;SDS011;26968;42.686;23.352;2023-03-23T14:03:42;9.93;;;5.80;;
41233;SDS011;26968;42.686;23.352;2023-03-23T14:06:15;7.32;;;5.65;;
41233;SDS011;26968;42.686;23.352;2023-03-23T14:08:44;9.50;;;5.97;;
41233;SDS011;26968;42.686;23.352;2023-03-23T14:19:13;7.65;;;5.88;;
41233;SDS011;26968;42.686;23.352;2023-03-23T14:21:54;8.63;;;5.07;;
41233;SDS011;26968;42.686;23.352;2023-03-23T14:26:48;9.77;;;6.35;;
41233;SDS011;26968;42.686;23.352;2023-03-23T14:29:19;12.75;;;5.88;;
41233;SDS011;26968;42.686;23.352;2023-03-23T14:31:48;7.95;;;5.75;;
41233;SDS011;26968;42.686;23.352;2023-03-23T14:34:21;9.63;;;6.07;;
41233;SDS011;26968;42.686;23.352;2023-03-23T14:36:49;7.25;;;5.45;;
41233;SDS011;26968;42.686;23.352;2023-03-23T14:39:35;14.57;;;5.65;;
41233;SDS011;26968;42.686;23.352;2023-03-23T14:42:06;10.98;;;5.55;;
41233;SDS011;26968;42.686;23.352;2023-03-23T14:44:49;6.88;;;4.47;;
41233;SDS011;26968;42.686;23.352;2023-03-23T14:47:50;7.93;;;5.32;;
41233;SDS011;26968;42.686;23.352;2023-03-23T14:50:24;8.63;;;5.22;;
41233;SDS011;26968;42.686;23.352;2023-03-23T14:53:02;12.35;;;6.90;;
41233;SDS011;26968;42.686;23.352;2023-03-23T14:55:35;10.23;;;7.35;;
41233;SDS011;26968;42.686;23.352;2023-03-23T14:58:07;9.07;;;5.75;;
41233;SDS011;26968;42.686;23.352;2023-03-23T15:00:35;16.02;;;6.47;;
41233;SDS011;26968;42.686;23.352;2023-03-23T15:03:06;12.10;;;6.47;;
41233;SDS011;26968;42.686;23.352;2023-03-23T15:05:38;8.13;;;5.63;;
41233;SDS011;26968;42.686;23.352;2023-03-23T15:08:26;10.75;;;5.90;;
41233;SDS011;26968;42.686;23.352;2023-03-23T15:11:06;6.22;;;5.03;;
41233;SDS011;26968;42.686;23.352;2023-03-23T15:13:36;8.38;;;5.43;;
41233;SDS011;26968;42.686;23.352;2023-03-23T15:16:03;12.32;;;6.15;;
41233;SDS011;26968;42.686;23.352;2023-03-23T15:18:37;10.73;;;6.75;;
41233;SDS011;26968;42.686;23.352;2023-03-23T15:21:18;11.40;;;6.65;;
41233;SDS011;26968;42.686;23.352;2023-03-23T15:23:47;12.15;;;6.45;;
41233;SDS011;26968;42.686;23.352;2023-03-23T15:26:46;10.50;;;6.57;;
41233;SDS011;26968;42.686;23.352;2023-03-23T15:31:52;9.35;;;6.65;;
41233;SDS011;26968;42.686;23.352;2023-03-23T15:34:29;12.23;;;6.65;;
41233;SDS011;26968;42.686;23.352;2023-03-23T15:37:42;9.90;;;6.00;;
41233;SDS011;26968;42.686;23.352;2023-03-23T15:40:03;9.68;;;6.30;;
41233;SDS011;26968;42.686;23.352;2023-03-23T15:42:32;13.05;;;6.32;;
41233;SDS011;26968;42.686;23.352;2023-03-23T15:45:16;7.57;;;5.25;;
41233;SDS011;26968;42.686;23.352;2023-03-23T15:47:52;12.10;;;6.10;;
41233;SDS011;26968;42.686;23.352;2023-03-23T15:50:19;16.20;;;6.30;;
41233;SDS011;26968;42.686;23.352;2023-03-23T15:52:57;11.25;;;5.93;;
41233;SDS011;26968;42.686;23.352;2023-03-23T15:57:53;18.45;;;6.82;;
41233;SDS011;26968;42.686;23.352;2023-03-23T16:00:21;8.52;;;5.85;;
41233;SDS011;26968;42.686;23.352;2023-03-23T16:02:55;9.73;;;6.13;;
41233;SDS011;26968;42.686;23.352;2023-03-23T16:05:23;17.48;;;6.63;;
41233;SDS011;26968;42.686;23.352;2023-03-23T16:07:49;13.30;;;6.35;;
41233;SDS011;26968;42.686;23.352;2023-03-23T16:10:17;10.82;;;6.57;;
41233;SDS011;26968;42.686;23.352;2023-03-23T16:12:44;13.32;;;6.38;;
41233;SDS011;26968;42.686;23.352;2023-03-23T16:15:10;17.55;;;7.22;;
41233;SDS011;26968;42.686;23.352;2023-03-23T16:17:37;16.20;;;7.32;;
41233;SDS011;26968;42.686;23.352;2023-03-23T16:20:13;13.90;;;6.72;;
41233;SDS011;26968;42.686;23.352;2023-03-23T16:22:40;9.57;;;5.88;;
41233;SDS011;26968;42.686;23.352;2023-03-23T16:25:06;15.80;;;6.75;;
41233;SDS011;26968;42.686;23.352;2023-03-23T16:27:32;11.63;;;6.57;;
41233;SDS011;26968;42.686;23.352;2023-03-23T16:29:57;10.80;;;6.78;;
41233;SDS011;26968;42.686;23.352;2023-03-23T16:32:24;11.95;;;6.25;;
41233;SDS011;26968;42.686;23.352;2023-03-23T16:34:50;15.50;;;7.22;;
41233;SDS011;26968;42.686;23.352;2023-03-23T16:37:16;10.05;;;7.05;;
41233;SDS011;26968;42.686;23.352;2023-03-23T16:39:41;10.82;;;6.45;;
41233;SDS011;26968;42.686;23.352;2023-03-23T16:42:06;12.15;;;7.55;;
41233;SDS011;26968;42.686;23.352;2023-03-23T16:44:32;14.02;;;7.05;;